Time;durP1;ratioP1;P1;durP2;ratioP2;P2;SDS_P1;SDS_P2;PMS_P1;PMS_P2;Temp;Humidity;BMP_temperature;BMP_pressure;BME280_temperature;BME280_humidity;BME280_pressure;Samples;Min_cycle;Max_cycle;Signal;HPM_P1;HPM_P2
2022/01/17 00:00:20;;;;;;;15.60;7.18;;;5.80;70.70;;;;;;2370298;54;20946;-68
2022/01/17 00:02:47;;;;;;;13.62;6.37;;;5.80;70.80;;;;;;2370407;53;20925;-67
2022/01/17 00:05:13;;;;;;;13.57;6.60;;;5.70;70.80;;;;;;2349378;53;21898;-68
2022/01/17 00:07:40;;;;;;;14.57;6.90;;;5.70;70.80;;;;;;2370396;54;20942;-67
2022/01/17 00:10:07;;;;;;;15.77;7.37;;;5.70;70.80;;;;;;2382021;52;20922;-69
2022/01/17 00:12:36;;;;;;;13.48;6.55;;;5.70;70.80;;;;;;2369432;53;20938;-68
2022/01/17 00:15:12;;;;;;;13.65;6.97;;;5.70;70.80;;;;;;2596592;52;20925;-67
2022/01/17 00:17:41;;;;;;;16.62;7.35;;;5.70;70.80;;;;;;2612337;52;20954;-67
2022/01/17 00:20:14;;;;;;;14.43;7.65;;;5.70;70.90;;;;;;2360659;53;21556;-69
2022/01/17 00:22:41;;;;;;;17.55;8.73;;;5.70;70.90;;;;;;2360229;53;21035;-67
2022/01/17 00:25:07;;;;;;;16.92;8.57;;;5.70;70.90;;;;;;2369820;54;20953;-69
2022/01/17 00:27:34;;;;;;;17.98;9.60;;;5.70;70.90;;;;;;2370755;54;21623;-68
2022/01/17 00:30:03;;;;;;;20.60;9.65;;;5.70;70.90;;;;;;2370529;53;20948;-67
2022/01/17 00:32:30;;;;;;;16.40;8.75;;;5.60;70.70;;;;;;2622874;52;20969;-68
2022/01/17 00:34:57;;;;;;;16.75;9.38;;;5.60;70.70;;;;;;2370259;53;21676;-67
2022/01/17 00:37:23;;;;;;;18.25;9.45;;;5.60;70.70;;;;;;2370749;54;20917;-66
2022/01/17 00:39:49;;;;;;;15.75;8.73;;;5.60;70.70;;;;;;2370590;54;22016;-67
2022/01/17 00:42:16;;;;;;;16.85;8.18;;;5.60;70.70;;;;;;2365484;53;21080;-66
2022/01/17 00:44:42;;;;;;;17.98;8.95;;;5.50;70.70;;;;;;2427866;52;20965;-67
2022/01/17 00:47:08;;;;;;;16.00;8.27;;;5.50;70.70;;;;;;2370534;54;21632;-69
2022/01/17 00:49:35;;;;;;;14.85;7.95;;;5.50;70.80;;;;;;2370340;54;20937;-66
2022/01/17 00:52:04;;;;;;;18.75;8.13;;;5.50;70.90;;;;;;2594443;52;20908;-68
2022/01/17 00:54:31;;;;;;;16.00;8.77;;;5.50;71.00;;;;;;2369022;54;21056;-69
2022/01/17 00:57:00;;;;;;;15.35;7.75;;;5.50;71.00;;;;;;2352286;53;21029;-66
2022/01/17 00:59:29;;;;;;;14.80;7.75;;;5.50;71.10;;;;;;2370867;53;21351;-67
2022/01/17 01:01:58;;;;;;;13.37;7.07;;;5.50;71.20;;;;;;2477986;52;20938;-65
2022/01/17 01:04:26;;;;;;;13.82;8.02;;;5.50;71.20;;;;;;2370332;53;20978;-68
2022/01/17 01:06:52;;;;;;;14.52;7.55;;;5.50;71.30;;;;;;2477544;52;21054;-67
2022/01/17 01:09:18;;;;;;;16.90;8.18;;;5.50;71.20;;;;;;2371707;53;20933;-69
2022/01/17 01:11:45;;;;;;;15.23;8.38;;;5.50;71.20;;;;;;2501146;52;20973;-67
2022/01/17 01:14:11;;;;;;;15.20;8.25;;;5.50;71.20;;;;;;2593809;52;21008;-67
2022/01/17 01:16:37;;;;;;;16.17;8.85;;;5.50;71.20;;;;;;2370944;53;20962;-67
2022/01/17 01:19:19;;;;;;;15.35;8.30;;;5.50;71.10;;;;;;2368646;54;20945;-69
2022/01/17 01:28:31;;;;;;;14.18;6.78;;;5.50;71.00;;;;;;2483192;52;21674;-68
2022/01/17 01:30:59;;;;;;;14.98;7.87;;;5.40;70.90;;;;;;2503040;53;21038;-68
2022/01/17 01:33:31;;;;;;;15.48;7.90;;;5.40;71.00;;;;;;2370395;53;21001;-67
2022/01/17 01:36:23;;;;;;;;;;;5.40;71.10;;;;;;2376070;53;20997;-69
2022/01/17 01:38:49;;;;;;;12.25;6.45;;;5.40;70.20;;;;;;2372146;53;20098;-66
2022/01/17 01:41:15;;;;;;;12.50;6.78;;;5.40;70.90;;;;;;2374356;53;20981;-67
2022/01/17 01:43:42;;;;;;;12.75;6.62;;;5.40;71.00;;;;;;2371473;53;20941;-67
2022/01/17 01:46:10;;;;;;;13.55;7.30;;;5.40;71.00;;;;;;2372395;53;21031;-65
2022/01/17 01:48:36;;;;;;;13.82;7.78;;;5.40;71.10;;;;;;2546932;53;20986;-67
2022/01/17 01:51:02;;;;;;;13.25;7.35;;;5.30;71.00;;;;;;2343101;53;20975;-66
2022/01/17 01:53:28;;;;;;;15.23;7.25;;;5.30;70.90;;;;;;2340681;54;20944;-69
2022/01/17 01:55:56;;;;;;;13.55;7.18;;;5.30;71.00;;;;;;2337613;53;20953;-65
2022/01/17 01:58:25;;;;;;;15.57;7.57;;;5.30;71.10;;;;;;2326772;54;20943;-67
2022/01/17 02:00:51;;;;;;;12.37;7.18;;;5.30;71.20;;;;;;2331120;53;21915;-68
2022/01/17 02:03:17;;;;;;;13.25;6.57;;;5.30;71.30;;;;;;2360455;53;20905;-68
2022/01/17 02:05:44;;;;;;;14.07;6.68;;;5.30;71.30;;;;;;2369207;53;20905;-68
2022/01/17 02:08:15;;;;;;;13.00;6.62;;;5.30;71.30;;;;;;2601949;52;21082;-68
2022/01/17 02:10:42;;;;;;;11.70;6.83;;;5.30;71.30;;;;;;2301393;54;20965;-68
2022/01/17 02:13:12;;;;;;;12.52;6.97;;;5.30;71.30;;;;;;2312735;53;21630;-67
2022/01/17 02:15:40;;;;;;;14.73;7.40;;;5.30;71.40;;;;;;2308975;54;21006;-68
2022/01/17 02:18:07;;;;;;;13.90;7.25;;;5.30;71.30;;;;;;2319384;53;20956;-67
2022/01/17 02:20:46;;;;;;;12.90;7.28;;;5.30;71.30;;;;;;2441496;52;20958;-68
2022/01/17 02:23:14;;;;;;;13.90;7.50;;;5.30;71.30;;;;;;2365229;54;20957;-68
2022/01/17 02:25:40;;;;;;;13.45;6.60;;;5.30;71.30;;;;;;2358277;54;20929;-67
2022/01/17 02:28:06;;;;;;;12.95;6.95;;;5.30;71.40;;;;;;2349164;54;20933;-66
2022/01/17 02:30:32;;;;;;;14.60;8.27;;;5.30;71.40;;;;;;2496357;52;20958;-67
2022/01/17 02:32:59;;;;;;;12.48;7.15;;;5.30;71.50;;;;;;2369990;54;20894;-67
2022/01/17 02:35:26;;;;;;;12.25;6.82;;;5.30;71.50;;;;;;2349985;54;21018;-66
2022/01/17 02:37:55;;;;;;;12.95;7.62;;;5.30;71.50;;;;;;2607518;52;21065;-68
2022/01/17 02:40:21;;;;;;;14.85;7.25;;;5.30;71.50;;;;;;2343090;54;21502;-66
2022/01/17 02:42:56;;;;;;;13.35;7.00;;;5.30;71.50;;;;;;2365447;54;21399;-68
2022/01/17 02:45:37;;;;;;;15.40;8.10;;;5.30;71.50;;;;;;2371728;52;21061;-65
2022/01/17 02:48:08;;;;;;;16.48;7.85;;;5.30;71.50;;;;;;2365064;54;20930;-69
2022/01/17 02:50:35;;;;;;;15.35;8.40;;;5.30;71.30;;;;;;2341692;54;21340;-68
2022/01/17 02:53:04;;;;;;;15.10;8.15;;;5.30;71.40;;;;;;2366420;54;20938;-68
2022/01/17 02:55:30;;;;;;;15.88;8.43;;;5.30;71.40;;;;;;2341202;54;20945;-69
2022/01/17 02:57:56;;;;;;;15.55;7.90;;;5.30;71.40;;;;;;2364948;54;20986;-68
2022/01/17 03:00:23;;;;;;;16.20;8.57;;;5.30;71.40;;;;;;2365112;54;21408;-67
2022/01/17 03:02:49;;;;;;;14.95;8.18;;;5.30;71.40;;;;;;2363094;54;20961;-69
2022/01/17 03:05:16;;;;;;;16.70;8.15;;;5.30;71.40;;;;;;2326053;54;21498;-68
2022/01/17 03:07:43;;;;;;;15.98;9.00;;;5.30;71.50;;;;;;2364761;54;21873;-65
2022/01/17 03:10:19;;;;;;;16.75;8.75;;;5.30;71.60;;;;;;2357383;54;21457;-68
2022/01/17 03:12:46;;;;;;;14.95;8.07;;;5.30;71.60;;;;;;2577276;53;20931;-66
2022/01/17 03:15:13;;;;;;;15.27;8.68;;;5.30;71.60;;;;;;2615441;52;21339;-69
2022/01/17 03:17:40;;;;;;;16.62;8.25;;;5.30;71.70;;;;;;2616246;52;21502;-67
2022/01/17 03:20:07;;;;;;;17.77;9.65;;;5.30;71.70;;;;;;2364821;54;21685;-67
2022/01/17 03:22:34;;;;;;;18.55;8.93;;;5.30;71.60;;;;;;2365214;54;20938;-69
2022/01/17 03:25:00;;;;;;;15.32;8.30;;;5.30;71.50;;;;;;2362540;54;21331;-68
2022/01/17 03:27:27;;;;;;;16.95;9.13;;;5.30;71.50;;;;;;2347428;54;20964;-69
2022/01/17 03:29:53;;;;;;;16.10;9.10;;;5.30;71.50;;;;;;2359241;54;20929;-66
2022/01/17 03:32:20;;;;;;;15.95;9.43;;;5.30;71.40;;;;;;2365222;54;20938;-66
2022/01/17 03:34:47;;;;;;;18.30;10.13;;;5.30;71.40;;;;;;2583494;52;20938;-67
2022/01/17 03:37:16;;;;;;;18.70;9.77;;;5.30;71.40;;;;;;2364534;54;21017;-68
2022/01/17 03:39:42;;;;;;;14.82;7.87;;;5.30;71.30;;;;;;2616138;52;20941;-69
2022/01/17 03:42:09;;;;;;;16.27;8.50;;;5.30;71.50;;;;;;2449225;52;20954;-68
2022/01/17 03:44:35;;;;;;;16.35;8.07;;;5.30;71.50;;;;;;2364753;53;21017;-69
2022/01/17 03:47:01;;;;;;;16.35;8.75;;;5.30;71.60;;;;;;2364595;54;20990;-68
2022/01/17 03:49:29;;;;;;;16.37;8.82;;;5.30;71.70;;;;;;2572995;52;20997;-67
2022/01/17 03:51:55;;;;;;;15.98;8.55;;;5.30;71.60;;;;;;2462816;52;21538;-67
2022/01/17 03:54:22;;;;;;;17.35;8.70;;;5.30;71.60;;;;;;2364941;54;21407;-67
2022/01/17 03:56:48;;;;;;;15.50;8.35;;;5.30;71.60;;;;;;2365430;54;20942;-66
2022/01/17 03:59:14;;;;;;;13.18;7.90;;;5.30;71.60;;;;;;2365280;54;20926;-66
2022/01/17 04:01:40;;;;;;;16.05;8.43;;;5.40;71.70;;;;;;2364686;54;20919;-68
2022/01/17 04:04:07;;;;;;;16.17;8.20;;;5.40;71.80;;;;;;2427726;52;21426;-69
2022/01/17 04:06:33;;;;;;;16.87;8.98;;;5.40;71.80;;;;;;2576830;52;21443;-68
2022/01/17 04:09:00;;;;;;;17.92;9.10;;;5.40;71.70;;;;;;2360357;54;20989;-68
2022/01/17 04:11:26;;;;;;;18.10;9.40;;;5.40;71.70;;;;;;2345880;54;21635;-68
2022/01/17 04:13:52;;;;;;;17.60;9.02;;;5.40;72.40;;;;;;2411579;52;20981;-68
2022/01/17 04:16:19;;;;;;;13.93;7.60;;;5.40;71.70;;;;;;2364964;54;20981;-67
2022/01/17 04:18:46;;;;;;;16.48;8.38;;;5.40;71.70;;;;;;2341463;54;20953;-67
2022/01/17 04:21:12;;;;;;;16.08;8.02;;;5.40;71.80;;;;;;2364658;54;21013;-68
2022/01/17 04:23:38;;;;;;;17.08;8.65;;;5.40;71.90;;;;;;2364687;54;21001;-69
2022/01/17 04:26:04;;;;;;;16.80;8.93;;;5.40;71.80;;;;;;2364076;54;20993;-67
2022/01/17 04:28:31;;;;;;;19.87;9.95;;;5.50;71.90;;;;;;2615175;52;20941;-69
2022/01/17 04:30:59;;;;;;;19.12;9.32;;;5.50;71.90;;;;;;2367356;54;20982;-66
2022/01/17 04:33:25;;;;;;;17.08;8.40;;;5.50;72.60;;;;;;2363986;53;21385;-66
2022/01/17 04:35:52;;;;;;;18.85;9.23;;;5.50;72.00;;;;;;2465194;52;20970;-68
2022/01/17 04:38:19;;;;;;;17.12;8.30;;;5.50;72.10;;;;;;2347495;54;20954;-68
2022/01/17 04:40:47;;;;;;;16.17;9.15;;;5.50;72.10;;;;;;2566634;52;20954;-66
2022/01/17 04:43:21;;;;;;;17.95;9.32;;;5.60;72.20;;;;;;2603040;52;21017;-66
2022/01/17 04:45:48;;;;;;;16.33;8.98;;;5.60;72.10;;;;;;2350118;54;21528;-70
2022/01/17 04:48:15;;;;;;;16.85;8.90;;;5.60;72.10;;;;;;2364816;54;21041;-67
2022/01/17 04:50:42;;;;;;;15.32;7.97;;;5.70;72.00;;;;;;2365569;54;20942;-67
2022/01/17 04:53:11;;;;;;;15.35;8.52;;;5.60;71.70;;;;;;2341346;54;20958;-67
2022/01/17 04:55:38;;;;;;;17.23;8.60;;;5.60;71.70;;;;;;2364210;54;21481;-66
2022/01/17 04:58:04;;;;;;;15.23;8.60;;;5.70;71.60;;;;;;2364779;54;20934;-69
2022/01/17 05:00:30;;;;;;;15.98;8.00;;;5.60;71.40;;;;;;2364418;54;20926;-66
2022/01/17 05:02:59;;;;;;;13.30;7.65;;;5.60;71.40;;;;;;2362748;54;20988;-69
2022/01/17 05:05:26;;;;;;;13.77;7.45;;;5.60;71.40;;;;;;2347648;54;20922;-66
2022/01/17 05:07:53;;;;;;;16.05;8.50;;;5.60;71.50;;;;;;2379538;52;20973;-69
2022/01/17 05:10:21;;;;;;;13.07;7.03;;;5.60;71.60;;;;;;2364721;54;21037;-67
2022/01/17 05:12:47;;;;;;;14.73;7.93;;;5.60;71.50;;;;;;2365138;54;20966;-67
2022/01/17 05:15:30;;;;;;;12.45;6.10;;;5.60;71.60;;;;;;2366375;54;20947;-67
2022/01/17 05:20:41;;;;;;;16.77;8.57;;;5.60;71.70;;;;;;2359588;54;21474;-67
2022/01/17 05:23:08;;;;;;;15.85;8.30;;;5.60;71.70;;;;;;2341548;52;1796743;-68
2022/01/17 05:25:52;;;;;;;14.70;7.62;;;5.60;71.80;;;;;;2365554;54;21028;-68
2022/01/17 05:28:21;;;;;;;15.65;8.27;;;5.60;71.60;;;;;;2366992;54;20902;-65
2022/01/17 05:30:47;;;;;;;15.82;8.38;;;5.70;72.00;;;;;;2379139;52;21514;-67
2022/01/17 05:33:13;;;;;;;19.00;9.90;;;5.70;71.90;;;;;;2343589;54;21306;-67
2022/01/17 05:35:41;;;;;;;17.12;8.85;;;5.70;71.90;;;;;;2445674;52;20982;-68
2022/01/17 05:38:10;;;;;;;19.58;9.60;;;5.70;71.80;;;;;;2366659;54;21493;-68
2022/01/17 05:40:37;;;;;;;14.55;9.02;;;5.70;71.80;;;;;;2617831;52;20925;-67
2022/01/17 05:43:03;;;;;;;16.25;9.65;;;5.70;71.70;;;;;;2368305;53;21458;-67
2022/01/17 05:45:29;;;;;;;17.60;9.18;;;5.70;71.60;;;;;;2365520;54;20988;-66
2022/01/17 05:47:55;;;;;;;16.80;9.05;;;5.70;71.50;;;;;;2366234;54;20950;-66
2022/01/17 05:50:23;;;;;;;16.37;8.90;;;5.70;71.50;;;;;;2366697;54;20978;-65
2022/01/17 05:52:52;;;;;;;12.10;7.32;;;5.70;71.50;;;;;;2366960;54;21067;-66
2022/01/17 05:55:18;;;;;;;15.63;8.38;;;5.70;71.50;;;;;;2366928;53;20914;-66
2022/01/17 05:57:45;;;;;;;16.98;8.93;;;5.70;71.50;;;;;;2365895;54;20942;-68
2022/01/17 06:00:13;;;;;;;14.00;8.00;;;5.70;71.40;;;;;;2366722;54;21049;-69
2022/01/17 06:02:39;;;;;;;13.23;7.30;;;5.70;71.40;;;;;;2366726;53;20934;-67
2022/01/17 06:05:08;;;;;;;16.65;8.38;;;5.70;71.50;;;;;;2366693;54;20930;-67
2022/01/17 06:07:34;;;;;;;11.30;6.00;;;5.70;71.60;;;;;;2366337;54;20932;-68
2022/01/17 06:10:00;;;;;;;11.95;6.57;;;5.70;71.70;;;;;;2316443;55;20996;-65
2022/01/17 06:12:27;;;;;;;14.45;7.22;;;5.70;71.70;;;;;;2368314;53;20982;-68
2022/01/17 06:14:58;;;;;;;13.02;6.80;;;5.80;71.80;;;;;;2343871;54;21384;-68
2022/01/17 06:17:24;;;;;;;12.07;6.55;;;5.70;71.70;;;;;;2343452;54;20911;-67
2022/01/17 06:19:50;;;;;;;14.82;7.65;;;5.80;71.80;;;;;;2343952;54;21047;-68
2022/01/17 06:22:16;;;;;;;14.02;7.37;;;5.80;71.70;;;;;;2489853;53;20891;-66
2022/01/17 06:24:44;;;;;;;14.93;8.23;;;5.80;71.60;;;;;;2343940;54;20947;-67
2022/01/17 06:27:13;;;;;;;15.43;8.43;;;5.80;71.50;;;;;;2344256;53;21026;-67
2022/01/17 06:29:47;;;;;;;17.73;8.60;;;5.80;71.60;;;;;;2349587;54;21020;-69
2022/01/17 06:32:13;;;;;;;16.90;9.23;;;5.80;71.40;;;;;;2475374;53;21747;-68
2022/01/17 06:34:51;;;;;;;16.52;9.10;;;5.80;71.40;;;;;;2411163;53;20979;-69
2022/01/17 06:37:17;;;;;;;15.90;8.38;;;5.80;71.30;;;;;;2344441;53;21008;-66
2022/01/17 06:39:43;;;;;;;19.60;10.10;;;5.70;71.20;;;;;;2342865;53;21443;-66
2022/01/17 06:42:10;;;;;;;19.20;10.60;;;5.70;71.20;;;;;;2362333;54;20890;-68
2022/01/17 06:44:36;;;;;;;19.15;10.13;;;5.80;71.30;;;;;;2371446;54;21428;-67
2022/01/17 06:47:02;;;;;;;20.50;10.48;;;5.70;71.10;;;;;;2364036;53;20929;-67
2022/01/17 06:49:31;;;;;;;16.40;8.90;;;5.70;71.10;;;;;;2340813;53;20917;-68
2022/01/17 06:51:57;;;;;;;16.85;8.77;;;5.70;71.00;;;;;;2411670;52;20976;-68
2022/01/17 06:54:23;;;;;;;14.55;8.68;;;5.70;71.10;;;;;;2356503;53;20944;-67
2022/01/17 06:56:49;;;;;;;13.82;8.00;;;5.70;71.20;;;;;;2345155;53;20940;-66
2022/01/17 06:59:17;;;;;;;12.27;6.37;;;5.70;71.20;;;;;;2367341;54;21046;-66
2022/01/17 07:01:43;;;;;;;13.13;7.35;;;5.70;71.30;;;;;;2367768;54;20971;-68
2022/01/17 07:04:09;;;;;;;13.13;7.28;;;5.70;71.50;;;;;;2371300;54;21031;-67
2022/01/17 07:06:37;;;;;;;16.33;8.18;;;5.70;71.50;;;;;;2367224;53;21681;-67
2022/01/17 07:09:05;;;;;;;14.13;7.30;;;5.70;71.50;;;;;;2367498;53;21421;-67
2022/01/17 07:11:38;;;;;;;12.65;6.97;;;5.70;71.50;;;;;;2367288;53;20916;-66
2022/01/17 07:14:06;;;;;;;13.43;6.75;;;5.70;71.50;;;;;;2368420;54;21039;-69
2022/01/17 07:16:32;;;;;;;13.57;7.75;;;5.70;71.60;;;;;;2346839;53;21000;-67
2022/01/17 07:19:01;;;;;;;13.93;7.22;;;5.70;71.60;;;;;;2367506;53;21916;-69
2022/01/17 07:21:28;;;;;;;13.27;7.70;;;5.70;71.70;;;;;;2367584;54;20940;-69
2022/01/17 07:23:55;;;;;;;11.85;6.95;;;5.70;71.80;;;;;;2367695;54;21448;-68
2022/01/17 07:26:22;;;;;;;12.65;6.35;;;5.70;71.90;;;;;;2367669;54;20970;-66
2022/01/17 07:28:48;;;;;;;16.98;8.75;;;5.70;71.90;;;;;;2367596;54;20951;-67
2022/01/17 07:31:17;;;;;;;15.40;8.40;;;5.70;71.90;;;;;;2369129;54;21011;-66
2022/01/17 07:33:44;;;;;;;15.55;8.02;;;5.70;71.90;;;;;;2480255;52;20955;-68
2022/01/17 07:36:13;;;;;;;15.50;8.50;;;5.70;71.90;;;;;;2367625;54;21000;-69
2022/01/17 07:38:39;;;;;;;18.42;8.90;;;5.70;71.80;;;;;;2367423;54;21458;-68
2022/01/17 07:41:05;;;;;;;16.37;9.25;;;5.70;71.70;;;;;;2367588;54;20956;-69
2022/01/17 07:43:48;;;;;;;14.43;8.55;;;5.70;71.70;;;;;;2368213;54;20996;-69
2022/01/17 07:46:25;;;;;;;15.80;8.68;;;5.70;71.60;;;;;;2367095;54;20923;-68
2022/01/17 07:49:14;;;;;;;18.45;9.43;;;5.70;71.70;;;;;;2347196;53;21015;-66
2022/01/17 07:51:42;;;;;;;16.33;8.50;;;5.70;71.70;;;;;;2367507;54;21732;-68
2022/01/17 07:54:10;;;;;;;15.35;8.13;;;5.70;71.80;;;;;;2367933;53;21701;-65
2022/01/17 07:56:36;;;;;;;14.20;8.25;;;5.70;71.90;;;;;;2370174;54;21014;-67
2022/01/17 07:59:04;;;;;;;14.30;8.25;;;5.70;71.90;;;;;;2348676;53;21008;-69
2022/01/17 08:01:31;;;;;;;17.87;9.50;;;5.80;72.00;;;;;;2368272;54;21495;-69
2022/01/17 08:03:57;;;;;;;17.80;9.77;;;5.80;72.00;;;;;;2367310;54;20971;-67
2022/01/17 08:06:26;;;;;;;18.55;10.77;;;5.80;72.00;;;;;;2367837;54;21507;-67
2022/01/17 08:08:52;;;;;;;17.75;9.75;;;5.80;72.00;;;;;;2347218;53;20946;-69
2022/01/17 08:11:21;;;;;;;18.17;10.20;;;5.80;72.00;;;;;;2365755;53;20908;-67
2022/01/17 08:13:48;;;;;;;16.95;10.23;;;5.90;72.20;;;;;;2366475;53;21024;-66
2022/01/17 08:16:15;;;;;;;18.48;10.60;;;5.80;72.20;;;;;;2367368;53;20959;-68
2022/01/17 08:18:43;;;;;;;17.33;9.60;;;5.90;72.40;;;;;;2364263;54;21537;-67
2022/01/17 08:21:10;;;;;;;17.02;9.50;;;5.90;72.50;;;;;;2366649;53;20944;-67
2022/01/17 08:23:37;;;;;;;20.10;10.45;;;5.90;73.30;;;;;;2366936;54;21789;-68
2022/01/17 08:26:03;;;;;;;19.65;10.77;;;6.00;72.80;;;;;;2454201;52;20960;-69
2022/01/17 08:28:29;;;;;;;17.02;10.00;;;6.00;72.90;;;;;;2346739;53;21398;-67
2022/01/17 08:30:56;;;;;;;17.92;10.50;;;6.00;72.80;;;;;;2367195;54;21047;-66
2022/01/17 08:33:43;;;;;;;19.85;10.55;;;6.10;72.80;;;;;;2351085;53;21498;-68
2022/01/17 08:36:11;;;;;;;21.48;11.38;;;6.10;72.70;;;;;;2364056;53;20959;-67
2022/01/17 08:38:45;;;;;;;21.25;11.00;;;6.10;72.50;;;;;;2366491;54;21328;-69
2022/01/17 08:41:11;;;;;;;21.62;11.43;;;6.10;72.40;;;;;;2367277;54;20940;-67
2022/01/17 08:43:38;;;;;;;23.12;11.52;;;6.20;72.50;;;;;;2366728;54;20955;-68
2022/01/17 08:46:06;;;;;;;20.75;11.30;;;6.20;72.40;;;;;;2448699;52;21422;-66
2022/01/17 08:48:32;;;;;;;18.25;9.68;;;6.20;72.40;;;;;;2367386;54;21807;-67
2022/01/17 08:50:58;;;;;;;21.60;10.32;;;6.20;72.50;;;;;;2365898;54;21373;-69
2022/01/17 08:53:26;;;;;;;20.30;10.65;;;6.20;72.70;;;;;;2347647;53;21749;-68
2022/01/17 08:55:52;;;;;;;18.80;10.85;;;6.30;72.90;;;;;;2461359;52;21022;-68
2022/01/17 08:58:18;;;;;;;20.98;10.15;;;6.30;72.90;;;;;;2353747;52;20940;-68
2022/01/17 09:00:45;;;;;;;19.40;9.65;;;6.30;72.90;;;;;;2363853;53;20911;-68
2022/01/17 09:03:20;;;;;;;19.12;10.35;;;6.40;72.90;;;;;;2367727;54;20916;-66
2022/01/17 09:05:46;;;;;;;17.62;10.25;;;6.40;73.00;;;;;;2553385;52;21078;-68
2022/01/17 09:08:18;;;;;;;17.30;9.38;;;6.40;72.90;;;;;;2367698;53;20960;-67
2022/01/17 09:10:45;;;;;;;;;;;6.40;72.80;;;;;;2592078;52;20932;-66
2022/01/17 09:13:11;;;;;;;15.93;8.65;;;6.50;72.10;;;;;;2537841;52;20063;-68
2022/01/17 09:15:38;;;;;;;15.27;8.65;;;6.50;73.60;;;;;;2367504;53;20926;-68
2022/01/17 09:18:04;;;;;;;19.70;10.57;;;6.50;72.80;;;;;;2367589;54;20927;-68
2022/01/17 09:20:34;;;;;;;20.88;10.85;;;6.50;72.70;;;;;;2465767;52;21035;-67
2022/01/17 09:23:04;;;;;;;23.50;12.15;;;6.50;72.60;;;;;;2321458;54;20943;-69
2022/01/17 09:25:30;;;;;;;23.77;12.52;;;6.50;72.50;;;;;;2444231;53;20955;-67
2022/01/17 09:27:56;;;;;;;20.20;11.30;;;6.60;72.70;;;;;;2343961;54;20905;-68
2022/01/17 09:30:22;;;;;;;20.58;11.60;;;6.60;72.70;;;;;;2345228;53;20924;-66
2022/01/17 09:32:49;;;;;;;20.33;11.50;;;6.60;72.90;;;;;;2342755;53;21452;-68
2022/01/17 09:35:15;;;;;;;19.33;11.07;;;6.60;73.00;;;;;;2591078;52;20984;-66
2022/01/17 09:37:42;;;;;;;19.45;10.95;;;6.60;72.90;;;;;;2344141;53;20936;-68
2022/01/17 09:40:09;;;;;;;20.00;9.95;;;6.70;73.10;;;;;;2344383;53;20922;-68
2022/01/17 09:42:37;;;;;;;22.00;10.70;;;6.70;73.20;;;;;;2326755;53;20959;-68
2022/01/17 09:45:10;;;;;;;18.10;9.75;;;6.70;73.20;;;;;;2352290;53;20951;-69
2022/01/17 09:47:39;;;;;;;17.58;10.15;;;6.80;73.10;;;;;;2367474;54;21126;-69
2022/01/17 09:50:09;;;;;;;20.67;10.38;;;6.80;73.10;;;;;;2367436;53;20970;-66
2022/01/17 09:52:35;;;;;;;20.73;11.65;;;6.80;72.90;;;;;;2366880;54;20915;-66
2022/01/17 09:55:13;;;;;;;21.30;11.75;;;6.80;72.70;;;;;;2367427;54;21405;-68
2022/01/17 09:58:03;;;;;;;24.73;12.98;;;6.80;72.60;;;;;;2367340;54;20984;-66
2022/01/17 10:00:31;;;;;;;27.90;14.15;;;6.90;72.50;;;;;;2367681;53;21448;-68
2022/01/17 10:02:59;;;;;;;24.02;13.02;;;6.80;72.50;;;;;;2367607;54;21442;-67
2022/01/17 10:05:26;;;;;;;25.20;13.88;;;6.90;72.70;;;;;;2367037;53;20940;-69
2022/01/17 10:08:04;;;;;;;25.73;14.87;;;6.80;72.60;;;;;;2365101;54;20944;-68
2022/01/17 10:11:01;;;;;;;28.45;14.98;;;6.80;72.50;;;;;;2367631;53;20920;-65
2022/01/17 10:13:31;;;;;;;26.25;14.52;;;6.80;72.50;;;;;;2367900;53;20975;-67
2022/01/17 10:16:20;;;;;;;26.00;14.52;;;6.90;72.80;;;;;;2367343;53;20919;-67
2022/01/17 10:19:01;;;;;;;26.23;14.48;;;6.90;72.50;;;;;;2367253;54;21292;-68
2022/01/17 10:21:50;;;;;;;26.08;14.27;;;6.90;72.90;;;;;;2367457;53;21360;-67
2022/01/17 10:24:55;;;;;;;25.88;15.18;;;6.90;73.30;;;;;;2367284;54;20960;-66
2022/01/17 10:36:00;;;;;;;25.58;14.98;;;7.50;79.00;;;;;;2360917;53;20952;-68
2022/01/17 10:38:29;;;;;;;24.55;14.57;;;7.80;81.00;;;;;;2367696;53;21083;-67
2022/01/17 10:41:00;;;;;;;26.98;15.75;;;8.10;81.10;;;;;;2367646;53;20931;-68
2022/01/17 10:43:32;;;;;;;24.77;15.48;;;8.40;79.80;;;;;;2368645;53;21625;-67
2022/01/17 10:45:58;;;;;;;24.80;14.30;;;8.60;78.40;;;;;;2478742;52;21106;-67
2022/01/17 10:48:34;;;;;;;24.50;13.62;;;8.70;77.00;;;;;;2507078;52;20949;-67
2022/01/17 10:51:03;;;;;;;24.40;13.80;;;8.80;75.70;;;;;;2367423;53;20940;-67
2022/01/17 10:53:29;;;;;;;22.00;12.52;;;8.80;75.40;;;;;;2370730;52;20963;-69
2022/01/17 10:55:56;;;;;;;21.83;12.80;;;8.80;74.80;;;;;;2368669;54;20924;-67
2022/01/17 10:58:30;;;;;;;20.10;11.77;;;8.80;74.50;;;;;;2345395;53;20918;-66
2022/01/17 11:00:57;;;;;;;19.12;11.77;;;8.80;74.00;;;;;;2514277;52;20928;-68
2022/01/17 11:03:44;;;;;;;17.70;11.23;;;8.80;74.20;;;;;;2601103;52;21023;-70
2022/01/17 11:06:20;;;;;;;20.80;11.98;;;8.70;74.10;;;;;;2617369;52;20947;-68
2022/01/17 11:08:47;;;;;;;20.52;12.00;;;8.70;73.70;;;;;;2365569;53;21585;-69
2022/01/17 11:11:13;;;;;;;17.25;10.52;;;8.70;73.70;;;;;;2365701;54;21062;-67
2022/01/17 11:13:43;;;;;;;16.95;10.27;;;8.80;73.70;;;;;;2365776;53;21003;-66
2022/01/17 11:16:13;;;;;;;16.92;9.75;;;8.70;74.70;;;;;;2417177;52;21001;-71
2022/01/17 11:18:42;;;;;;;15.38;9.63;;;8.70;74.50;;;;;;2362921;54;20961;-69
2022/01/17 11:21:14;;;;;;;16.37;9.45;;;8.80;74.90;;;;;;2348181;53;20939;-66
2022/01/17 11:23:47;;;;;;;17.98;11.10;;;8.90;76.40;;;;;;2340566;55;20952;-70
2022/01/17 11:26:14;;;;;;;17.33;11.07;;;9.00;77.10;;;;;;2339722;53;20962;-67
2022/01/17 11:28:40;;;;;;;16.15;9.80;;;9.20;77.00;;;;;;2371000;54;20942;-69
2022/01/17 11:31:11;;;;;;;15.43;9.77;;;9.30;76.60;;;;;;2370864;54;20945;-68
2022/01/17 11:33:37;;;;;;;16.27;9.15;;;9.40;75.80;;;;;;2370202;53;20978;-66
2022/01/17 11:36:04;;;;;;;15.23;8.68;;;9.40;75.20;;;;;;2371079;53;21089;-68
2022/01/17 11:38:35;;;;;;;14.10;9.02;;;9.40;74.50;;;;;;2370508;54;20986;-67
2022/01/17 11:41:02;;;;;;;15.15;9.48;;;9.50;74.20;;;;;;2350587;53;21025;-69
2022/01/17 11:43:34;;;;;;;12.15;7.75;;;9.40;73.60;;;;;;2595520;52;21344;-67
2022/01/17 11:46:22;;;;;;;13.38;7.95;;;9.40;73.40;;;;;;2370405;54;21095;-69
2022/01/17 11:49:02;;;;;;;13.85;8.05;;;9.40;73.40;;;;;;2375392;53;21633;-69
2022/01/17 11:51:37;;;;;;;14.50;8.05;;;9.40;73.20;;;;;;2355723;53;20957;-67
2022/01/17 11:54:11;;;;;;;13.13;7.70;;;9.40;73.00;;;;;;2368763;53;21607;-70
2022/01/17 11:56:40;;;;;;;12.98;7.47;;;9.40;73.10;;;;;;2370287;53;20976;-67
2022/01/17 12:02:38;;;;;;;13.45;7.65;;;9.40;73.40;;;;;;2370106;54;20997;-68
2022/01/17 12:05:31;;;;;;;11.50;6.75;;;9.40;72.00;;;;;;2349539;53;20965;-68
2022/01/17 12:07:57;;;;;;;12.77;6.57;;;9.40;72.50;;;;;;2370640;54;21032;-67
2022/01/17 12:10:25;;;;;;;12.85;6.80;;;9.40;73.30;;;;;;2370391;53;20942;-67
2022/01/17 12:13:33;;;;;;;12.95;7.90;;;9.40;73.20;;;;;;2353598;53;20937;-67
2022/01/17 12:16:18;;;;;;;13.57;8.57;;;9.40;72.00;;;;;;2372799;53;21410;-69
2022/01/17 12:19:24;;;;;;;13.38;7.93;;;9.40;72.50;;;;;;2369176;53;21474;-68
2022/01/17 12:22:06;;;;;;;11.20;6.80;;;9.40;73.00;;;;;;2342323;55;20926;-67
2022/01/17 12:24:35;;;;;;;11.55;7.03;;;9.40;73.10;;;;;;2361973;53;20946;-69
2022/01/17 12:27:10;;;;;;;13.27;7.65;;;9.40;73.60;;;;;;2342591;53;20976;-68
2022/01/17 12:29:51;;;;;;;14.25;8.13;;;9.40;73.90;;;;;;2341631;53;20922;-67
2022/01/17 12:32:54;;;;;;;13.70;8.00;;;9.40;73.20;;;;;;2352189;54;21186;-70
2022/01/17 12:35:29;;;;;;;14.82;8.02;;;9.50;72.60;;;;;;2347951;53;20967;-67
2022/01/17 12:38:13;;;;;;;12.20;6.90;;;9.50;73.50;;;;;;2340807;53;21418;-69
2022/01/17 12:40:56;;;;;;;9.63;5.90;;;9.50;73.90;;;;;;2322892;54;21539;-68
2022/01/17 12:43:30;;;;;;;14.52;8.10;;;9.60;74.60;;;;;;2335823;53;20915;-68
2022/01/17 12:46:08;;;;;;;15.23;8.85;;;9.70;74.80;;;;;;2343498;53;20953;-68
2022/01/17 12:48:36;;;;;;;13.50;7.60;;;9.70;74.50;;;;;;2488333;53;21365;-69
2022/01/17 12:51:07;;;;;;;14.10;8.23;;;9.80;74.70;;;;;;2347727;54;21498;-68
2022/01/17 12:53:33;;;;;;;13.52;7.47;;;9.80;74.30;;;;;;2340498;53;21404;-69
2022/01/17 12:56:04;;;;;;;13.10;7.10;;;9.90;74.20;;;;;;2342082;54;21024;-70
2022/01/17 12:58:36;;;;;;;12.82;7.20;;;9.90;73.70;;;;;;2347604;54;20914;-68
2022/01/17 13:01:15;;;;;;;12.27;7.43;;;9.90;73.50;;;;;;2346566;53;21565;-67
2022/01/17 13:03:46;;;;;;;12.07;6.97;;;10.00;71.90;;;;;;2347006;53;21114;-70
2022/01/17 13:06:16;;;;;;;15.02;9.15;;;10.00;72.50;;;;;;2364589;53;21560;-68
2022/01/17 13:08:44;;;;;;;17.58;9.68;;;10.00;72.10;;;;;;2474799;52;21031;-68
2022/01/17 13:11:14;;;;;;;12.20;8.02;;;10.00;71.30;;;;;;2356214;53;20943;-68
2022/01/17 13:13:47;;;;;;;13.07;7.90;;;10.00;71.40;;;;;;2364051;53;20923;-68
2022/01/17 13:16:16;;;;;;;11.75;7.18;;;9.90;72.40;;;;;;2365770;54;20935;-67
2022/01/17 13:18:42;;;;;;;10.85;7.22;;;9.90;72.90;;;;;;2365227;54;20992;-70